PWSweather.com
Personal Weather Stations
Station Observations

ChardChardGB

Lat: 50.877408, Lon: -2.94964741

Elevation: 341

Station Type: WS3083

http://www.merriott-astro.co.uk/weather/index.htm

High Low Average
Temperature 70.9°F21.6°C 45.5°F7.5°C 52.6°F11.4°C
Dew Point 50.9°F10.5°C 42.1°F5.6°C 46.8°F8.2°C
Winds 6.9 mph 11.1 kmh Calm Calm 2.0 mph E3.2 kmh E
Wind Gusts 10.7 mph17.2 kmh -- 3.0 mph4.8 kmh
Humidity 91% 42% 82%
Pressure 30.09 in1019.0 mb 30.02 in1016.6 mb -
Precipitation 0.00 in0.0 mm - -
Hour Temp Dew Point Humidity Winds Wind Gusts Pressure Precip Precip Rate Daily Precip Total
12:00 AM 49.5°F9.7°C 44.2°F6.8°C 82% Calm Calm -- 30.09 in1019.0 mb 0.00 in0.0 mm 0.00 in0.0 mm 0.00 in0.0 mm
12:10 AM 50.2°F10.1°C 45.2°F7.3°C 83% Calm Calm -- 30.09 in1019.0 mb 0.00 in0.0 mm 0.00 in0.0 mm 0.00 in0.0 mm
12:20 AM 49.8°F9.9°C 44.9°F7.2°C 83% Calm Calm -- 30.09 in1019.0 mb 0.00 in0.0 mm 0.00 in0.0 mm 0.00 in0.0 mm
12:30 AM 49.3°F9.6°C 44.3°F6.8°C 83% Calm Calm -- 30.09 in1019.0 mb 0.00 in0.0 mm 0.00 in0.0 mm 0.00 in0.0 mm
12:40 AM 48.7°F9.3°C 43.5°F6.4°C 82% Calm Calm -- 30.09 in1019.0 mb 0.00 in0.0 mm 0.00 in0.0 mm 0.00 in0.0 mm
12:50 AM 48.6°F9.2°C 43.3°F6.3°C 82% Calm Calm -- 30.09 in1019.0 mb 0.00 in0.0 mm 0.00 in0.0 mm 0.00 in0.0 mm
01:00 AM 48.4°F9.1°C 43.5°F6.4°C 83% Calm Calm -- 30.09 in1019.0 mb 0.00 in0.0 mm 0.00 in0.0 mm 0.00 in0.0 mm
01:10 AM 48.2°F9.0°C 43.3°F6.3°C 83% Calm Calm -- 30.09 in1019.0 mb 0.00 in0.0 mm 0.00 in0.0 mm 0.00 in0.0 mm
01:20 AM 48.0°F8.9°C 43.4°F6.3°C 84% Calm Calm -- 30.09 in1019.0 mb 0.00 in0.0 mm 0.00 in0.0 mm 0.00 in0.0 mm
01:30 AM 47.7°F8.7°C 43.4°F6.3°C 85% 0.2 mph E0.3 kmh E 1.6 mph2.6 kmh 30.09 in1019.0 mb 0.00 in0.0 mm 0.00 in0.0 mm 0.00 in0.0 mm
01:40 AM 47.8°F8.8°C 43.6°F6.4°C 85% Calm Calm -- 30.09 in1019.0 mb 0.00 in0.0 mm 0.00 in0.0 mm 0.00 in0.0 mm
01:50 AM 47.5°F8.6°C 43.2°F6.2°C 85% Calm Calm -- 30.08 in1018.6 mb 0.00 in0.0 mm 0.00 in0.0 mm 0.00 in0.0 mm
02:00 AM 47.3°F8.5°C 43.0°F6.1°C 85% Calm Calm -- 30.08 in1018.6 mb 0.00 in0.0 mm 0.00 in0.0 mm 0.00 in0.0 mm
02:10 AM 46.8°F8.2°C 42.5°F5.8°C 85% Calm Calm -- 30.08 in1018.6 mb 0.00 in0.0 mm 0.00 in0.0 mm 0.00 in0.0 mm
02:20 AM 46.6°F8.1°C 42.6°F5.9°C 86% Calm Calm -- 30.08 in1018.6 mb 0.00 in0.0 mm 0.00 in0.0 mm 0.00 in0.0 mm
02:30 AM 46.2°F7.9°C 42.3°F5.7°C 86% Calm Calm -- 30.08 in1018.6 mb 0.00 in0.0 mm 0.00 in0.0 mm 0.00 in0.0 mm
02:40 AM 46.0°F7.8°C 42.1°F5.6°C 86% Calm Calm -- 30.08 in1018.6 mb 0.00 in0.0 mm 0.00 in0.0 mm 0.00 in0.0 mm
02:50 AM 46.0°F7.8°C 42.4°F5.8°C 87% Calm Calm -- 30.07 in1018.3 mb 0.00 in0.0 mm 0.00 in0.0 mm 0.00 in0.0 mm
03:00 AM 45.9°F7.7°C 42.2°F5.7°C 87% Calm Calm -- 30.08 in1018.6 mb 0.00 in0.0 mm 0.00 in0.0 mm 0.00 in0.0 mm
03:10 AM 46.0°F7.8°C 42.4°F5.8°C 87% Calm Calm -- 30.08 in1018.6 mb 0.00 in0.0 mm 0.00 in0.0 mm 0.00 in0.0 mm
03:20 AM 45.9°F7.7°C 42.5°F5.8°C 88% Calm Calm -- 30.08 in1018.6 mb 0.00 in0.0 mm 0.00 in0.0 mm 0.00 in0.0 mm
03:30 AM 45.7°F7.6°C 42.3°F5.7°C 88% Calm Calm -- 30.07 in1018.3 mb 0.00 in0.0 mm 0.00 in0.0 mm 0.00 in0.0 mm
03:40 AM 45.5°F7.5°C 42.5°F5.8°C 89% Calm Calm -- 30.07 in1018.3 mb 0.00 in0.0 mm 0.00 in0.0 mm 0.00 in0.0 mm
03:50 AM 45.7°F7.6°C 42.6°F5.9°C 89% 0.3 mph NE0.5 kmh NE 1.6 mph2.6 kmh 30.07 in1018.3 mb 0.00 in0.0 mm 0.00 in0.0 mm 0.00 in0.0 mm
04:00 AM 45.7°F7.6°C 42.9°F6.1°C 90% Calm Calm -- 30.07 in1018.3 mb 0.00 in0.0 mm 0.00 in0.0 mm 0.00 in0.0 mm
04:10 AM 45.7°F7.6°C 42.9°F6.1°C 90% 0.2 mph ENE0.3 kmh ENE 0.7 mph1.1 kmh 30.07 in1018.3 mb 0.00 in0.0 mm 0.00 in0.0 mm 0.00 in0.0 mm
04:20 AM 46.0°F7.8°C 43.3°F6.3°C 90% 0.3 mph NE0.5 kmh NE 1.6 mph2.6 kmh 30.07 in1018.3 mb 0.00 in0.0 mm 0.00 in0.0 mm 0.00 in0.0 mm
04:30 AM 46.4°F8.0°C 43.9°F6.6°C 91% 0.5 mph NE0.8 kmh NE 1.6 mph2.6 kmh 30.08 in1018.6 mb 0.00 in0.0 mm 0.00 in0.0 mm 0.00 in0.0 mm
04:40 AM 46.6°F8.1°C 44.1°F6.7°C 91% 0.1 mph E0.2 kmh E 0.7 mph1.1 kmh 30.08 in1018.6 mb 0.00 in0.0 mm 0.00 in0.0 mm 0.00 in0.0 mm
04:50 AM 46.6°F8.1°C 44.1°F6.7°C 91% 0.1 mph E0.2 kmh E 0.7 mph1.1 kmh 30.07 in1018.3 mb 0.00 in0.0 mm 0.00 in0.0 mm 0.00 in0.0 mm
05:00 AM 46.6°F8.1°C 44.1°F6.7°C 91% Calm Calm -- 30.07 in1018.3 mb 0.00 in0.0 mm 0.00 in0.0 mm 0.00 in0.0 mm
05:10 AM 46.8°F8.2°C 44.3°F6.8°C 91% Calm Calm -- 30.08 in1018.6 mb 0.00 in0.0 mm 0.00 in0.0 mm 0.00 in0.0 mm
05:20 AM 46.9°F8.3°C 44.5°F6.9°C 91% 0.7 mph NE1.1 kmh NE 2.2 mph3.5 kmh 30.07 in1018.3 mb 0.00 in0.0 mm 0.00 in0.0 mm 0.00 in0.0 mm
05:30 AM 47.7°F8.7°C 44.9°F7.2°C 90% 0.6 mph ENE1.0 kmh ENE 2.2 mph3.5 kmh 30.07 in1018.3 mb 0.00 in0.0 mm 0.00 in0.0 mm 0.00 in0.0 mm
05:40 AM 50.2°F10.1°C 47.4°F8.6°C 90% 0.5 mph E0.8 kmh E 2.2 mph3.5 kmh 30.08 in1018.6 mb 0.00 in0.0 mm 0.00 in0.0 mm 0.00 in0.0 mm
05:50 AM 50.2°F10.1°C 47.4°F8.6°C 90% 1.0 mph E1.6 kmh E 1.6 mph2.6 kmh 30.08 in1018.6 mb 0.00 in0.0 mm 0.00 in0.0 mm 0.00 in0.0 mm
06:00 AM 50.2°F10.1°C 47.4°F8.6°C 90% 1.5 mph E2.4 kmh E 1.6 mph2.6 kmh 30.08 in1018.6 mb 0.00 in0.0 mm 0.00 in0.0 mm 0.00 in0.0 mm
06:10 AM 50.2°F10.1°C 47.4°F8.6°C 90% 1.5 mph E2.4 kmh E 1.6 mph2.6 kmh 30.09 in1019.0 mb 0.00 in0.0 mm 0.00 in0.0 mm 0.00 in0.0 mm
06:20 AM 50.2°F10.1°C 47.4°F8.6°C 90% 1.5 mph E2.4 kmh E 1.6 mph2.6 kmh 30.09 in1019.0 mb 0.00 in0.0 mm 0.00 in0.0 mm 0.00 in0.0 mm
06:30 AM 50.2°F10.1°C 47.4°F8.6°C 90% 1.5 mph E2.4 kmh E 1.6 mph2.6 kmh 30.09 in1019.0 mb 0.00 in0.0 mm 0.00 in0.0 mm 0.00 in0.0 mm
06:40 AM 50.2°F10.1°C 47.4°F8.6°C 90% 1.5 mph E2.4 kmh E 1.6 mph2.6 kmh 30.08 in1018.6 mb 0.00 in0.0 mm 0.00 in0.0 mm 0.00 in0.0 mm
06:50 AM 50.2°F10.1°C 47.4°F8.6°C 90% 1.5 mph E2.4 kmh E 1.6 mph2.6 kmh 30.09 in1019.0 mb 0.00 in0.0 mm 0.00 in0.0 mm 0.00 in0.0 mm
07:00 AM 50.2°F10.1°C 47.4°F8.6°C 90% 1.5 mph E2.4 kmh E 1.6 mph2.6 kmh 30.09 in1019.0 mb 0.00 in0.0 mm 0.00 in0.0 mm 0.00 in0.0 mm
07:10 AM 50.2°F10.1°C 47.4°F8.6°C 90% 1.5 mph E2.4 kmh E 1.6 mph2.6 kmh 30.08 in1018.6 mb 0.00 in0.0 mm 0.00 in0.0 mm 0.00 in0.0 mm
07:20 AM 50.2°F10.1°C 47.4°F8.6°C 90% 1.5 mph E2.4 kmh E 1.6 mph2.6 kmh 30.09 in1019.0 mb 0.00 in0.0 mm 0.00 in0.0 mm 0.00 in0.0 mm
07:30 AM 50.2°F10.1°C 47.4°F8.6°C 90% 1.5 mph E2.4 kmh E 1.6 mph2.6 kmh 30.09 in1019.0 mb 0.00 in0.0 mm 0.00 in0.0 mm 0.00 in0.0 mm
07:40 AM 50.2°F10.1°C 47.4°F8.6°C 90% 1.5 mph E2.4 kmh E 1.6 mph2.6 kmh 30.09 in1019.0 mb 0.00 in0.0 mm 0.00 in0.0 mm 0.00 in0.0 mm
07:50 AM 50.2°F10.1°C 47.4°F8.6°C 90% 1.5 mph E2.4 kmh E 1.6 mph2.6 kmh 30.09 in1019.0 mb 0.00 in0.0 mm 0.00 in0.0 mm 0.00 in0.0 mm
08:00 AM 50.2°F10.1°C 47.4°F8.6°C 90% 1.5 mph E2.4 kmh E 1.6 mph2.6 kmh 30.09 in1019.0 mb 0.00 in0.0 mm 0.00 in0.0 mm 0.00 in0.0 mm
08:10 AM 50.2°F10.1°C 47.4°F8.6°C 90% 1.5 mph E2.4 kmh E 1.6 mph2.6 kmh 30.09 in1019.0 mb 0.00 in0.0 mm 0.00 in0.0 mm 0.00 in0.0 mm
08:20 AM 50.2°F10.1°C 47.4°F8.6°C 90% 1.5 mph E2.4 kmh E 1.6 mph2.6 kmh 30.09 in1019.0 mb 0.00 in0.0 mm 0.00 in0.0 mm 0.00 in0.0 mm
08:30 AM 50.2°F10.1°C 47.4°F8.6°C 90% 1.5 mph E2.4 kmh E 1.6 mph2.6 kmh 30.09 in1019.0 mb 0.00 in0.0 mm 0.00 in0.0 mm 0.00 in0.0 mm
08:40 AM 50.2°F10.1°C 47.4°F8.6°C 90% 1.5 mph E2.4 kmh E 1.6 mph2.6 kmh 30.09 in1019.0 mb 0.00 in0.0 mm 0.00 in0.0 mm 0.00 in0.0 mm
08:50 AM 50.2°F10.1°C 47.4°F8.6°C 90% 1.5 mph E2.4 kmh E 1.6 mph2.6 kmh 30.09 in1019.0 mb 0.00 in0.0 mm 0.00 in0.0 mm 0.00 in0.0 mm
09:00 AM 50.2°F10.1°C 47.4°F8.6°C 90% 1.5 mph E2.4 kmh E 1.6 mph2.6 kmh 30.09 in1019.0 mb 0.00 in0.0 mm 0.00 in0.0 mm 0.00 in0.0 mm
09:10 AM 50.2°F10.1°C 47.4°F8.6°C 90% 1.5 mph E2.4 kmh E 1.6 mph2.6 kmh 30.09 in1019.0 mb 0.00 in0.0 mm 0.00 in0.0 mm 0.00 in0.0 mm
09:20 AM 50.2°F10.1°C 47.4°F8.6°C 90% 1.5 mph E2.4 kmh E 1.6 mph2.6 kmh 30.09 in1019.0 mb 0.00 in0.0 mm 0.00 in0.0 mm 0.00 in0.0 mm
09:30 AM 50.2°F10.1°C 47.4°F8.6°C 90% 1.5 mph E2.4 kmh E 1.6 mph2.6 kmh 30.09 in1019.0 mb 0.00 in0.0 mm 0.00 in0.0 mm 0.00 in0.0 mm
09:40 AM 50.2°F10.1°C 47.4°F8.6°C 90% 1.5 mph E2.4 kmh E 1.6 mph2.6 kmh 30.08 in1018.6 mb 0.00 in0.0 mm 0.00 in0.0 mm 0.00 in0.0 mm
09:50 AM 50.2°F10.1°C 47.4°F8.6°C 90% 1.5 mph E2.4 kmh E 1.6 mph2.6 kmh 30.09 in1019.0 mb 0.00 in0.0 mm 0.00 in0.0 mm 0.00 in0.0 mm
10:00 AM 50.2°F10.1°C 47.4°F8.6°C 90% 1.5 mph E2.4 kmh E 1.6 mph2.6 kmh 30.09 in1019.0 mb 0.00 in0.0 mm 0.00 in0.0 mm 0.00 in0.0 mm
10:10 AM 50.2°F10.1°C 47.4°F8.6°C 90% 1.5 mph E2.4 kmh E 1.6 mph2.6 kmh 30.08 in1018.6 mb 0.00 in0.0 mm 0.00 in0.0 mm 0.00 in0.0 mm
10:20 AM 50.2°F10.1°C 47.4°F8.6°C 90% 1.5 mph E2.4 kmh E 1.6 mph2.6 kmh 30.09 in1019.0 mb 0.00 in0.0 mm 0.00 in0.0 mm 0.00 in0.0 mm
10:30 AM 50.2°F10.1°C 47.4°F8.6°C 90% 1.5 mph E2.4 kmh E 1.6 mph2.6 kmh 30.08 in1018.6 mb 0.00 in0.0 mm 0.00 in0.0 mm 0.00 in0.0 mm
10:40 AM 50.2°F10.1°C 47.4°F8.6°C 90% 1.5 mph E2.4 kmh E 1.6 mph2.6 kmh 30.08 in1018.6 mb 0.00 in0.0 mm 0.00 in0.0 mm 0.00 in0.0 mm
10:50 AM 50.2°F10.1°C 47.4°F8.6°C 90% 1.5 mph E2.4 kmh E 1.6 mph2.6 kmh 30.08 in1018.6 mb 0.00 in0.0 mm 0.00 in0.0 mm 0.00 in0.0 mm
11:00 AM 50.2°F10.1°C 47.4°F8.6°C 90% 1.5 mph E2.4 kmh E 1.6 mph2.6 kmh 30.08 in1018.6 mb 0.00 in0.0 mm 0.00 in0.0 mm 0.00 in0.0 mm
11:10 AM 50.2°F10.1°C 47.4°F8.6°C 90% 1.5 mph E2.4 kmh E 1.6 mph2.6 kmh 30.08 in1018.6 mb 0.00 in0.0 mm 0.00 in0.0 mm 0.00 in0.0 mm
11:20 AM 50.2°F10.1°C 47.4°F8.6°C 90% 1.5 mph E2.4 kmh E 1.6 mph2.6 kmh 30.08 in1018.6 mb 0.00 in0.0 mm 0.00 in0.0 mm 0.00 in0.0 mm
11:30 AM 50.2°F10.1°C 47.4°F8.6°C 90% 1.5 mph E2.4 kmh E 1.6 mph2.6 kmh 30.07 in1018.3 mb 0.00 in0.0 mm 0.00 in0.0 mm 0.00 in0.0 mm
11:40 AM 50.2°F10.1°C 47.4°F8.6°C 90% 1.5 mph E2.4 kmh E 1.6 mph2.6 kmh 30.08 in1018.6 mb 0.00 in0.0 mm 0.00 in0.0 mm 0.00 in0.0 mm
11:50 AM 50.2°F10.1°C 47.4°F8.6°C 90% 1.5 mph E2.4 kmh E 1.6 mph2.6 kmh 30.07 in1018.3 mb 0.00 in0.0 mm 0.00 in0.0 mm 0.00 in0.0 mm
12:00 PM 50.2°F10.1°C 47.4°F8.6°C 90% 1.5 mph E2.4 kmh E 1.6 mph2.6 kmh 30.07 in1018.3 mb 0.00 in0.0 mm 0.00 in0.0 mm 0.00 in0.0 mm
12:10 PM 50.2°F10.1°C 47.4°F8.6°C 90% 1.5 mph E2.4 kmh E 1.6 mph2.6 kmh 30.07 in1018.3 mb 0.00 in0.0 mm 0.00 in0.0 mm 0.00 in0.0 mm
12:20 PM 50.2°F10.1°C 47.4°F8.6°C 90% 1.5 mph E2.4 kmh E 1.6 mph2.6 kmh 30.07 in1018.3 mb 0.00 in0.0 mm 0.00 in0.0 mm 0.00 in0.0 mm
12:30 PM 50.2°F10.1°C 47.4°F8.6°C 90% 1.5 mph E2.4 kmh E 1.6 mph2.6 kmh 30.07 in1018.3 mb 0.00 in0.0 mm 0.00 in0.0 mm 0.00 in0.0 mm
12:40 PM 50.2°F10.1°C 47.4°F8.6°C 90% 1.5 mph E2.4 kmh E 1.6 mph2.6 kmh 30.07 in1018.3 mb 0.00 in0.0 mm 0.00 in0.0 mm 0.00 in0.0 mm
12:50 PM 50.2°F10.1°C 47.4°F8.6°C 90% 1.5 mph E2.4 kmh E 1.6 mph2.6 kmh 30.07 in1018.3 mb 0.00 in0.0 mm 0.00 in0.0 mm 0.00 in0.0 mm
01:00 PM 50.2°F10.1°C 47.4°F8.6°C 90% 1.5 mph E2.4 kmh E 1.6 mph2.6 kmh 30.06 in1017.9 mb 0.00 in0.0 mm 0.00 in0.0 mm 0.00 in0.0 mm
01:10 PM 50.2°F10.1°C 47.4°F8.6°C 90% 1.5 mph E2.4 kmh E 1.6 mph2.6 kmh 30.06 in1017.9 mb 0.00 in0.0 mm 0.00 in0.0 mm 0.00 in0.0 mm
01:20 PM 50.2°F10.1°C 47.4°F8.6°C 90% 1.5 mph E2.4 kmh E 1.6 mph2.6 kmh 30.05 in1017.6 mb 0.00 in0.0 mm 0.00 in0.0 mm 0.00 in0.0 mm
01:30 PM 50.2°F10.1°C 47.4°F8.6°C 90% 1.5 mph E2.4 kmh E 1.6 mph2.6 kmh 30.06 in1017.9 mb 0.00 in0.0 mm 0.00 in0.0 mm 0.00 in0.0 mm
01:40 PM 50.2°F10.1°C 47.4°F8.6°C 90% 1.5 mph E2.4 kmh E 1.6 mph2.6 kmh 30.06 in1017.9 mb 0.00 in0.0 mm 0.00 in0.0 mm 0.00 in0.0 mm
01:50 PM 50.2°F10.1°C 47.4°F8.6°C 90% 1.5 mph E2.4 kmh E 1.6 mph2.6 kmh 30.05 in1017.6 mb 0.00 in0.0 mm 0.00 in0.0 mm 0.00 in0.0 mm
02:00 PM 50.2°F10.1°C 47.4°F8.6°C 90% 1.5 mph E2.4 kmh E 1.6 mph2.6 kmh 30.05 in1017.6 mb 0.00 in0.0 mm 0.00 in0.0 mm 0.00 in0.0 mm
02:10 PM 50.2°F10.1°C 47.4°F8.6°C 90% 1.5 mph E2.4 kmh E 1.6 mph2.6 kmh 30.06 in1017.9 mb 0.00 in0.0 mm 0.00 in0.0 mm 0.00 in0.0 mm
02:20 PM 50.2°F10.1°C 47.4°F8.6°C 90% 1.5 mph E2.4 kmh E 1.6 mph2.6 kmh 30.05 in1017.6 mb 0.00 in0.0 mm 0.00 in0.0 mm 0.00 in0.0 mm
02:30 PM 50.2°F10.1°C 47.4°F8.6°C 90% 1.5 mph E2.4 kmh E 1.6 mph2.6 kmh 30.05 in1017.6 mb 0.00 in0.0 mm 0.00 in0.0 mm 0.00 in0.0 mm
02:40 PM 50.2°F10.1°C 47.4°F8.6°C 90% 1.5 mph E2.4 kmh E 1.6 mph2.6 kmh 30.05 in1017.6 mb 0.00 in0.0 mm 0.00 in0.0 mm 0.00 in0.0 mm
02:50 PM 50.2°F10.1°C 47.4°F8.6°C 90% 1.5 mph E2.4 kmh E 1.6 mph2.6 kmh 30.05 in1017.6 mb 0.00 in0.0 mm 0.00 in0.0 mm 0.00 in0.0 mm
03:00 PM 50.2°F10.1°C 47.4°F8.6°C 90% 1.5 mph E2.4 kmh E 1.6 mph2.6 kmh 30.04 in1017.3 mb 0.00 in0.0 mm 0.00 in0.0 mm 0.00 in0.0 mm
03:10 PM 50.2°F10.1°C 47.4°F8.6°C 90% 1.5 mph E2.4 kmh E 1.6 mph2.6 kmh 30.05 in1017.6 mb 0.00 in0.0 mm 0.00 in0.0 mm 0.00 in0.0 mm
03:20 PM 50.2°F10.1°C 47.4°F8.6°C 90% 1.5 mph E2.4 kmh E 1.6 mph2.6 kmh 30.04 in1017.3 mb 0.00 in0.0 mm 0.00 in0.0 mm 0.00 in0.0 mm
03:30 PM 50.2°F10.1°C 47.4°F8.6°C 90% 1.5 mph E2.4 kmh E 1.6 mph2.6 kmh 30.04 in1017.3 mb 0.00 in0.0 mm 0.00 in0.0 mm 0.00 in0.0 mm
03:40 PM 50.2°F10.1°C 47.4°F8.6°C 90% 1.5 mph E2.4 kmh E 1.6 mph2.6 kmh 30.04 in1017.3 mb 0.00 in0.0 mm 0.00 in0.0 mm 0.00 in0.0 mm
03:50 PM 50.2°F10.1°C 47.4°F8.6°C 90% 1.5 mph E2.4 kmh E 1.6 mph2.6 kmh 30.04 in1017.3 mb 0.00 in0.0 mm 0.00 in0.0 mm 0.00 in0.0 mm
04:00 PM 50.2°F10.1°C 47.4°F8.6°C 90% 1.5 mph E2.4 kmh E 1.6 mph2.6 kmh 30.03 in1016.9 mb 0.00 in0.0 mm 0.00 in0.0 mm 0.00 in0.0 mm
04:10 PM 50.2°F10.1°C 47.4°F8.6°C 90% 1.5 mph E2.4 kmh E 1.6 mph2.6 kmh 30.04 in1017.3 mb 0.00 in0.0 mm 0.00 in0.0 mm 0.00 in0.0 mm
04:20 PM 50.2°F10.1°C 47.4°F8.6°C 90% 1.5 mph E2.4 kmh E 1.6 mph2.6 kmh 30.03 in1016.9 mb 0.00 in0.0 mm 0.00 in0.0 mm 0.00 in0.0 mm
04:30 PM 50.2°F10.1°C 47.4°F8.6°C 90% 1.5 mph E2.4 kmh E 1.6 mph2.6 kmh 30.03 in1016.9 mb 0.00 in0.0 mm 0.00 in0.0 mm 0.00 in0.0 mm
04:40 PM 50.2°F10.1°C 47.4°F8.6°C 90% 1.5 mph E2.4 kmh E 1.6 mph2.6 kmh 30.04 in1017.3 mb 0.00 in0.0 mm 0.00 in0.0 mm 0.00 in0.0 mm
04:50 PM 50.2°F10.1°C 47.4°F8.6°C 90% 1.5 mph E2.4 kmh E 1.6 mph2.6 kmh 30.03 in1016.9 mb 0.00 in0.0 mm 0.00 in0.0 mm 0.00 in0.0 mm
05:00 PM 50.2°F10.1°C 47.4°F8.6°C 90% 1.5 mph E2.4 kmh E 1.6 mph2.6 kmh 30.03 in1016.9 mb 0.00 in0.0 mm 0.00 in0.0 mm 0.00 in0.0 mm
05:10 PM 50.2°F10.1°C 47.4°F8.6°C 90% 1.5 mph E2.4 kmh E 1.6 mph2.6 kmh 30.02 in1016.6 mb 0.00 in0.0 mm 0.00 in0.0 mm 0.00 in0.0 mm
05:20 PM 50.2°F10.1°C 47.4°F8.6°C 90% 1.5 mph E2.4 kmh E 1.6 mph2.6 kmh 30.03 in1016.9 mb 0.00 in0.0 mm 0.00 in0.0 mm 0.00 in0.0 mm
05:30 PM 70.9°F21.6°C 46.7°F8.2°C 42% 5.8 mph SW9.3 kmh SW 6.0 mph9.7 kmh 30.03 in1016.9 mb 0.00 in0.0 mm 0.00 in0.0 mm 0.00 in0.0 mm
05:40 PM 70.7°F21.5°C 46.5°F8.1°C 42% 6.1 mph NNW9.8 kmh NNW 8.3 mph13.4 kmh 30.02 in1016.6 mb 0.00 in0.0 mm 0.00 in0.0 mm 0.00 in0.0 mm
05:50 PM 68.9°F20.5°C 46.1°F7.8°C 44% 6.9 mph N11.1 kmh N 8.3 mph13.4 kmh 30.02 in1016.6 mb 0.00 in0.0 mm 0.00 in0.0 mm 0.00 in0.0 mm
06:00 PM 67.8°F19.9°C 48.0°F8.9°C 49% 6.7 mph NNW10.8 kmh NNW 9.8 mph15.8 kmh 30.03 in1016.9 mb 0.00 in0.0 mm 0.00 in0.0 mm 0.00 in0.0 mm
06:10 PM 68.5°F20.3°C 49.2°F9.6°C 50% 4.8 mph NW7.7 kmh NW 6.9 mph11.1 kmh 30.03 in1016.9 mb 0.00 in0.0 mm 0.00 in0.0 mm 0.00 in0.0 mm
06:20 PM 69.6°F20.9°C 50.7°F10.4°C 51% 4.7 mph NW7.6 kmh NW 10.7 mph17.2 kmh 30.03 in1016.9 mb 0.00 in0.0 mm 0.00 in0.0 mm 0.00 in0.0 mm
06:30 PM 70.0°F21.1°C 50.5°F10.3°C 50% 4.0 mph N6.4 kmh N 6.0 mph9.7 kmh 30.03 in1016.9 mb 0.00 in0.0 mm 0.00 in0.0 mm 0.00 in0.0 mm
06:40 PM 68.7°F20.4°C 50.4°F10.2°C 52% 3.9 mph NW6.3 kmh NW 6.0 mph9.7 kmh 30.03 in1016.9 mb 0.00 in0.0 mm 0.00 in0.0 mm 0.00 in0.0 mm
06:50 PM 66.9°F19.4°C 50.2°F10.1°C 55% 3.0 mph WNW4.8 kmh WNW 4.5 mph7.2 kmh 30.02 in1016.6 mb 0.00 in0.0 mm 0.00 in0.0 mm 0.00 in0.0 mm
07:00 PM 66.0°F18.9°C 50.8°F10.4°C 58% 3.3 mph N5.3 kmh N 5.4 mph8.7 kmh 30.03 in1016.9 mb 0.00 in0.0 mm 0.00 in0.0 mm 0.00 in0.0 mm
07:10 PM 66.6°F19.2°C 50.9°F10.5°C 57% 3.1 mph NNW5.0 kmh NNW 5.4 mph8.7 kmh 30.02 in1016.6 mb 0.00 in0.0 mm 0.00 in0.0 mm 0.00 in0.0 mm
07:20 PM 65.1°F18.4°C 50.0°F10.0°C 58% 3.7 mph N6.0 kmh N 5.4 mph8.7 kmh 30.03 in1016.9 mb 0.00 in0.0 mm 0.00 in0.0 mm 0.00 in0.0 mm
07:30 PM 63.9°F17.7°C 48.8°F9.3°C 58% 4.6 mph N7.4 kmh N 9.2 mph14.8 kmh 30.04 in1017.3 mb 0.00 in0.0 mm 0.00 in0.0 mm 0.00 in0.0 mm
07:40 PM 63.1°F17.3°C 49.5°F9.7°C 61% 5.5 mph N8.9 kmh N 9.2 mph14.8 kmh 30.03 in1016.9 mb 0.00 in0.0 mm 0.00 in0.0 mm 0.00 in0.0 mm
07:50 PM 62.2°F16.8°C 49.1°F9.5°C 62% 4.2 mph NNW6.8 kmh NNW 9.2 mph14.8 kmh 30.04 in1017.3 mb 0.00 in0.0 mm 0.00 in0.0 mm 0.00 in0.0 mm
08:00 PM 61.5°F16.4°C 48.4°F9.1°C 62% 2.2 mph NE3.5 kmh NE 3.1 mph5.0 kmh 30.04 in1017.3 mb 0.00 in0.0 mm 0.00 in0.0 mm 0.00 in0.0 mm
08:10 PM 61.0°F16.1°C 48.3°F9.1°C 63% 2.9 mph ENE4.7 kmh ENE 4.5 mph7.2 kmh 30.04 in1017.3 mb 0.00 in0.0 mm 0.00 in0.0 mm 0.00 in0.0 mm
08:20 PM 60.4°F15.8°C 48.2°F9.0°C 64% 3.0 mph NE4.8 kmh NE 5.4 mph8.7 kmh 30.04 in1017.3 mb 0.00 in0.0 mm 0.00 in0.0 mm 0.00 in0.0 mm
08:30 PM 59.9°F15.5°C 48.1°F8.9°C 65% 1.4 mph ENE2.3 kmh ENE 3.1 mph5.0 kmh 30.05 in1017.6 mb 0.00 in0.0 mm 0.00 in0.0 mm 0.00 in0.0 mm
08:40 PM 59.4°F15.2°C 48.4°F9.1°C 67% 2.6 mph NE4.2 kmh NE 5.4 mph8.7 kmh 30.06 in1017.9 mb 0.00 in0.0 mm 0.00 in0.0 mm 0.00 in0.0 mm
08:50 PM 59.4°F15.2°C 48.8°F9.3°C 68% 4.0 mph ENE6.4 kmh ENE 6.0 mph9.7 kmh 30.05 in1017.6 mb 0.00 in0.0 mm 0.00 in0.0 mm 0.00 in0.0 mm
09:00 PM 59.4°F15.2°C 48.4°F9.1°C 67% 4.7 mph E7.6 kmh E 6.0 mph9.7 kmh 30.06 in1017.9 mb 0.00 in0.0 mm 0.00 in0.0 mm 0.00 in0.0 mm
09:10 PM 59.2°F15.1°C 48.2°F9.0°C 67% 3.4 mph NE5.5 kmh NE 3.8 mph6.1 kmh 30.07 in1018.3 mb 0.00 in0.0 mm 0.00 in0.0 mm 0.00 in0.0 mm
09:20 PM 58.6°F14.8°C 48.5°F9.2°C 69% 3.6 mph ENE5.8 kmh ENE 4.5 mph7.2 kmh 30.06 in1017.9 mb 0.00 in0.0 mm 0.00 in0.0 mm 0.00 in0.0 mm
09:30 PM 58.3°F14.6°C 48.6°F9.2°C 70% 4.1 mph ENE6.6 kmh ENE 5.4 mph8.7 kmh 30.06 in1017.9 mb 0.00 in0.0 mm 0.00 in0.0 mm 0.00 in0.0 mm
09:40 PM 58.1°F14.5°C 48.4°F9.1°C 70% 3.9 mph NE6.3 kmh NE 5.4 mph8.7 kmh 30.07 in1018.3 mb 0.00 in0.0 mm 0.00 in0.0 mm 0.00 in0.0 mm
09:50 PM 57.7°F14.3°C 48.4°F9.1°C 71% 3.6 mph NE5.8 kmh NE 5.4 mph8.7 kmh 30.07 in1018.3 mb 0.00 in0.0 mm 0.00 in0.0 mm 0.00 in0.0 mm
10:00 PM 57.6°F14.2°C 48.2°F9.0°C 71% 4.9 mph ENE7.9 kmh ENE 6.0 mph9.7 kmh 30.07 in1018.3 mb 0.00 in0.0 mm 0.00 in0.0 mm 0.00 in0.0 mm
10:10 PM 57.4°F14.1°C 48.1°F8.9°C 71% 5.1 mph NE8.2 kmh NE 6.0 mph9.7 kmh 30.07 in1018.3 mb 0.00 in0.0 mm 0.00 in0.0 mm 0.00 in0.0 mm
10:20 PM 57.0°F13.9°C 48.1°F8.9°C 72% 4.2 mph NE6.8 kmh NE 5.4 mph8.7 kmh 30.07 in1018.3 mb 0.00 in0.0 mm 0.00 in0.0 mm 0.00 in0.0 mm
10:30 PM 56.8°F13.8°C 47.9°F8.8°C 72% 4.7 mph E7.6 kmh E 5.4 mph8.7 kmh 30.08 in1018.6 mb 0.00 in0.0 mm 0.00 in0.0 mm 0.00 in0.0 mm
10:40 PM 56.8°F13.8°C 48.3°F9.1°C 73% 4.0 mph E6.4 kmh E 5.4 mph8.7 kmh 30.08 in1018.6 mb 0.00 in0.0 mm 0.00 in0.0 mm 0.00 in0.0 mm
10:50 PM 56.8°F13.8°C 48.7°F9.3°C 74% 4.3 mph ENE6.9 kmh ENE 5.4 mph8.7 kmh 30.08 in1018.6 mb 0.00 in0.0 mm 0.00 in0.0 mm 0.00 in0.0 mm
11:00 PM 57.0°F13.9°C 49.2°F9.6°C 75% 4.4 mph ENE7.1 kmh ENE 5.4 mph8.7 kmh 30.08 in1018.6 mb 0.00 in0.0 mm 0.00 in0.0 mm 0.00 in0.0 mm
11:10 PM 57.0°F13.9°C 49.5°F9.7°C 76% 4.9 mph NE7.9 kmh NE 6.0 mph9.7 kmh 30.09 in1019.0 mb 0.00 in0.0 mm 0.00 in0.0 mm 0.00 in0.0 mm
11:20 PM 56.8°F13.8°C 49.4°F9.7°C 76% 3.7 mph ENE6.0 kmh ENE 5.4 mph8.7 kmh 30.08 in1018.6 mb 0.00 in0.0 mm 0.00 in0.0 mm 0.00 in0.0 mm
11:30 PM 56.8°F13.8°C 49.0°F9.4°C 75% 4.2 mph NE6.8 kmh NE 6.0 mph9.7 kmh 30.08 in1018.6 mb 0.00 in0.0 mm 0.00 in0.0 mm 0.00 in0.0 mm
11:40 PM 56.7°F13.7°C 48.8°F9.3°C 75% 4.4 mph NE7.1 kmh NE 6.0 mph9.7 kmh 30.09 in1019.0 mb 0.00 in0.0 mm 0.00 in0.0 mm 0.00 in0.0 mm
11:50 PM 56.7°F13.7°C 48.8°F9.3°C 75% 4.4 mph NE7.1 kmh NE 6.0 mph9.7 kmh 30.09 in1019.0 mb 0.00 in0.0 mm 0.00 in0.0 mm 0.00 in0.0 mm